This is the latest recevied weather packets stored in our database for station/object Aulendorf. If no packets are shown the sender has not sent any weather packets the latest 1 day(s).
| Time | Temp. | Humidity | Pressure | Rain* | Wind** | Luminosity | Snow |
|---|---|---|---|---|---|---|---|
| 1778068930 | 16.11° C | 65% | 1003.7 hPa | 0.25 mm | - | - | - |
| 1778067137 | 16.11° C | 67% | 1003.9 hPa | 0.25 mm | - | - | - |
| 1778061734 | 14.44° C | 76% | 1004.5 hPa | 0.25 mm | - | - | - |
| 1778059931 | 13.89° C | 76% | 1004.7 hPa | 0 mm | - | - | - |
| 1778058131 | 14.44° C | 73% | 1004.9 hPa | 0 mm | - | - | - |
| 1778054532 | 13.33° C | 80% | 1004.8 hPa | 0 mm | - | - | - |
| 1778052731 | 12.78° C | 83% | 1004.9 hPa | 0 mm | - | - | - |
| 1778050932 | 11.67° C | 87% | 1005.2 hPa | 0 mm | - | - | - |
| 1778040131 | 9.44° C | 91% | 1005.7 hPa | 0 mm | - | - | - |
| 1778036532 | 10° C | 90% | 1006.3 hPa | 0 mm | - | - | - |
| 1778032932 | 9.44° C | 91% | 1006.6 hPa | 0 mm | - | - | - |
| 1778031131 | 10° C | 91% | 1006.8 hPa | 0 mm | - | - | - |
| 1778029332 | 10° C | 91% | 1007.1 hPa | 0 mm | - | - | - |
| 1778020330 | 10.56° C | 90% | 1007.9 hPa | 0 mm | - | - | - |
| 1778016731 | 10.56° C | 89% | 1007.8 hPa | 0.51 mm | - | - | - |
| 1778011330 | 12.22° C | 84% | 1007.7 hPa | 0.51 mm | - | - | - |
| 1778002330 | 16.67° C | 64% | 1005.8 hPa | 0 mm | - | - | - |
| 1778000530 | 17.22° C | 64% | 1005.6 hPa | 0 mm | - | - | - |
| 1777998731 | 18.33° C | 63% | 1005.4 hPa | 0 mm | - | - | - |
| 1777995130 | 16.67° C | 70% | 1005.3 hPa | 0 mm | - | - | - |
* Rain since midnight (hover to see other rain measurements)
** Current wind speed in m/s (hover to see current wind gust speed)